createdAt,value
2023-02-07T00:00:24.871Z,104004.72
2023-02-07T00:02:52.175Z,103996.47
2023-02-07T00:05:19.057Z,103989.00
2023-02-07T00:07:45.977Z,103977.97
2023-02-07T00:10:12.830Z,103976.50
2023-02-07T00:12:39.984Z,103974.28
2023-02-07T00:15:07.272Z,103970.38
2023-02-07T00:17:34.134Z,103970.47
2023-02-07T00:20:00.955Z,103962.53
2023-02-07T00:22:27.903Z,103970.13
2023-02-07T00:24:54.738Z,103967.31
2023-02-07T00:27:21.681Z,103970.59
2023-02-07T00:29:48.522Z,103972.88
2023-02-07T00:32:15.506Z,103971.44
2023-02-07T00:34:42.450Z,103974.94
2023-02-07T00:37:09.987Z,103981.06
2023-02-07T00:39:38.391Z,103980.97
2023-02-07T00:42:05.451Z,103977.22
2023-02-07T00:44:32.972Z,103979.84
2023-02-07T00:46:59.846Z,103977.09
2023-02-07T00:49:27.061Z,103970.97
2023-02-07T00:51:53.881Z,103969.50
2023-02-07T00:54:20.872Z,103966.97
2023-02-07T00:56:47.670Z,103962.75
2023-02-07T00:59:14.696Z,103956.25
2023-02-07T01:01:41.672Z,103957.47
2023-02-07T01:04:08.525Z,103947.72
2023-02-07T01:06:36.994Z,103947.47
2023-02-07T01:09:05.111Z,103947.47
2023-02-07T01:11:32.408Z,103940.50
2023-02-07T01:14:02.575Z,103940.50
2023-02-07T01:16:34.146Z,103948.44
2023-02-07T01:19:02.503Z,103951.78
2023-02-07T01:21:29.376Z,103961.41
2023-02-07T01:23:56.732Z,103957.34
2023-02-07T01:26:24.747Z,103960.13
2023-02-07T01:28:51.669Z,103964.19
2023-02-07T01:31:18.736Z,103962.50
2023-02-07T01:33:45.773Z,103962.50
2023-02-07T01:36:14.210Z,103960.13
2023-02-07T01:38:41.527Z,103966.25
2023-02-07T01:41:09.035Z,103963.59
2023-02-07T01:43:36.120Z,103959.88
2023-02-07T01:46:02.966Z,103958.56
2023-02-07T01:48:31.593Z,103959.13
2023-02-07T01:51:00.749Z,103946.41
2023-02-07T01:53:29.032Z,103948.75
2023-02-07T01:55:57.691Z,103944.63
2023-02-07T01:58:25.583Z,103951.31
2023-02-07T02:00:52.574Z,103949.44
2023-02-07T02:03:19.377Z,103956.66
2023-02-07T02:05:47.227Z,103958.34
2023-02-07T02:08:14.399Z,103958.47
2023-02-07T02:10:56.788Z,103958.34
2023-02-07T02:13:26.715Z,103954.75
2023-02-07T02:15:56.540Z,103957.75
2023-02-07T02:18:32.522Z,103969.19
2023-02-07T02:21:05.376Z,103965.66
2023-02-07T02:23:51.056Z,103958.94
2023-02-07T02:26:24.200Z,103950.53
2023-02-07T02:29:09.860Z,103961.56
2023-02-07T02:31:42.467Z,103948.81
2023-02-07T02:34:18.692Z,103948.38
2023-02-07T02:36:54.692Z,103944.31
2023-02-07T02:39:21.506Z,103937.81
2023-02-07T02:42:07.036Z,103931.56
2023-02-07T02:44:40.447Z,103928.81
2023-02-07T02:47:08.495Z,103925.03
2023-02-07T02:49:36.207Z,103924.75
2023-02-07T02:52:03.743Z,103926.16
2023-02-07T02:54:33.879Z,103930.75
2023-02-07T02:57:19.140Z,103922.22
2023-02-07T03:00:06.472Z,103922.44
2023-02-07T03:02:48.884Z,103892.19
2023-02-07T03:05:24.897Z,103904.84
2023-02-07T03:07:54.631Z,103904.91
2023-02-07T03:10:30.709Z,103900.31
2023-02-07T03:13:12.947Z,103903.00
2023-02-07T03:15:48.343Z,103903.59
2023-02-07T03:18:15.279Z,103899.06
2023-02-07T03:20:48.156Z,103894.50
2023-02-07T03:23:16.885Z,103893.69
2023-02-07T03:25:44.566Z,103886.44
2023-02-07T03:28:13.379Z,103884.78
2023-02-07T03:30:44.036Z,103879.78
2023-02-07T03:33:13.065Z,103886.78
2023-02-07T03:35:40.181Z,103885.94
2023-02-07T03:38:07.909Z,103879.09
2023-02-07T03:40:45.985Z,103876.44
2023-02-07T03:43:22.432Z,103872.56
2023-02-07T03:45:49.410Z,103878.69
2023-02-07T03:48:16.422Z,103883.66
2023-02-07T03:50:43.215Z,103876.16
2023-02-07T03:53:09.985Z,103866.44
2023-02-07T03:55:37.122Z,103867.81
2023-02-07T03:58:04.582Z,103854.47
2023-02-07T04:00:31.355Z,103862.81
2023-02-07T04:02:58.192Z,103862.81
2023-02-07T04:05:25.031Z,103858.25
2023-02-07T04:07:51.967Z,103862.25
2023-02-07T04:10:19.345Z,103868.50
2023-02-07T04:12:47.246Z,103859.47
2023-02-07T04:15:14.159Z,103849.59
2023-02-07T04:17:40.991Z,103855.03
2023-02-07T04:20:08.486Z,103848.06
2023-02-07T04:22:35.565Z,103844.84
2023-02-07T04:25:02.400Z,103847.22
2023-02-07T04:27:29.422Z,103842.75
2023-02-07T04:29:56.696Z,103835.81
2023-02-07T04:32:23.565Z,103830.38
2023-02-07T04:34:50.566Z,103826.91
2023-02-07T04:37:17.395Z,103834.56
2023-02-07T04:39:44.312Z,103836.63
2023-02-07T04:42:11.108Z,103838.84
2023-02-07T04:44:38.089Z,103840.81
2023-02-07T04:47:05.042Z,103844.13
2023-02-07T04:49:34.249Z,103849.66
2023-02-07T04:52:01.556Z,103842.56
2023-02-07T04:54:28.723Z,103844.63
2023-02-07T04:56:55.553Z,103837.84
2023-02-07T04:59:22.601Z,103841.00
2023-02-07T05:01:49.479Z,103834.34
2023-02-07T05:04:16.394Z,103826.44
2023-02-07T05:06:43.217Z,103832.69
2023-02-07T05:09:10.079Z,103827.13
2023-02-07T05:11:36.919Z,103828.94
2023-02-07T05:14:03.799Z,103832.97
2023-02-07T05:16:30.712Z,103827.66
2023-02-07T05:18:57.565Z,103824.16
2023-02-07T05:21:24.438Z,103839.28
2023-02-07T05:23:51.262Z,103848.19
2023-02-07T05:26:18.369Z,103851.31
2023-02-07T05:28:45.235Z,103849.72
2023-02-07T05:31:12.307Z,103854.44
2023-02-07T05:33:39.353Z,103854.16
2023-02-07T05:36:06.482Z,103851.06
2023-02-07T05:38:33.388Z,103859.44
2023-02-07T05:41:00.289Z,103864.03
2023-02-07T05:43:27.190Z,103869.97
2023-02-07T05:45:54.006Z,103874.16
2023-02-07T05:48:20.967Z,103870.66
2023-02-07T05:50:47.792Z,103881.94
2023-02-07T05:53:14.898Z,103887.00
2023-02-07T05:55:42.043Z,103895.59
2023-02-07T05:58:08.936Z,103888.91
2023-02-07T06:00:35.838Z,103900.22
2023-02-07T06:03:02.743Z,103897.03
2023-02-07T06:05:31.954Z,103900.97
2023-02-07T06:07:59.470Z,103897.91
2023-02-07T06:10:26.342Z,103903.84
2023-02-07T06:12:53.592Z,103906.22
2023-02-07T06:15:20.806Z,103902.75
2023-02-07T06:17:47.788Z,103903.16
2023-02-07T06:20:14.725Z,103908.25
2023-02-07T06:22:41.873Z,103923.19
2023-02-07T06:25:11.916Z,103920.13
2023-02-07T06:27:39.963Z,103922.94
2023-02-07T06:30:07.762Z,103925.72
2023-02-07T06:32:34.777Z,103924.88
2023-02-07T06:35:01.667Z,103930.69
2023-02-07T06:37:28.859Z,103938.00
2023-02-07T06:39:56.064Z,103939.94
2023-02-07T06:42:22.949Z,103937.16
2023-02-07T06:44:50.033Z,103936.91
2023-02-07T06:47:16.880Z,103943.31
2023-02-07T06:49:43.722Z,103944.38
2023-02-07T06:52:10.699Z,103944.56
2023-02-07T06:54:37.898Z,103939.03
2023-02-07T06:57:05.696Z,103952.41
2023-02-07T06:59:32.543Z,103951.34
2023-02-07T07:02:00.709Z,103957.13
2023-02-07T07:04:27.590Z,103961.16
2023-02-07T07:06:54.423Z,103957.84
2023-02-07T07:09:21.227Z,103956.41
2023-02-07T07:11:48.038Z,103965.19
2023-02-07T07:14:15.048Z,103966.34
2023-02-07T07:16:42.885Z,103975.00
2023-02-07T07:19:10.046Z,103965.09
2023-02-07T07:21:37.130Z,103980.06
2023-02-07T07:24:04.163Z,103977.00
2023-02-07T07:26:46.653Z,103979.25
2023-02-07T07:29:15.815Z,103972.09
2023-02-07T07:31:42.646Z,103973.19
2023-02-07T07:34:09.515Z,103968.22
2023-02-07T07:36:36.290Z,103965.56
2023-02-07T07:39:03.310Z,103970.38
2023-02-07T07:41:30.300Z,103965.38
2023-02-07T07:43:57.176Z,103961.22
2023-02-07T07:46:24.039Z,103973.63
2023-02-07T07:48:51.584Z,103969.19
2023-02-07T07:51:18.565Z,103972.47
2023-02-07T07:53:45.990Z,103962.50
2023-02-07T07:56:13.133Z,103967.50
2023-02-07T07:58:40.062Z,103964.81
2023-02-07T08:01:07.046Z,103963.31
2023-02-07T08:03:33.927Z,103970.03
2023-02-07T08:06:00.780Z,103975.13
2023-02-07T08:08:27.657Z,103971.84
2023-02-07T08:10:54.525Z,103967.97
2023-02-07T08:13:21.544Z,103976.88
2023-02-07T08:15:48.408Z,103974.25
2023-02-07T08:18:15.388Z,103976.91
2023-02-07T08:20:42.444Z,103961.84
2023-02-07T08:23:09.299Z,103961.84
2023-02-07T08:25:36.360Z,103964.94
2023-02-07T08:28:04.586Z,103970.22
2023-02-07T08:30:32.249Z,103968.69
2023-02-07T08:32:59.211Z,103969.06
2023-02-07T08:35:27.272Z,103972.56
2023-02-07T08:37:55.882Z,103974.59
2023-02-07T08:40:23.085Z,103977.44
2023-02-07T08:42:50.034Z,103975.22
2023-02-07T08:45:17.775Z,103978.56
2023-02-07T08:47:45.609Z,103973.28
2023-02-07T08:50:13.220Z,103986.03
2023-02-07T08:52:40.207Z,103992.03
2023-02-07T08:55:07.858Z,103993.69
2023-02-07T08:57:34.838Z,104001.25
2023-02-07T09:00:02.238Z,104007.25
2023-02-07T09:02:29.112Z,104012.94
2023-02-07T09:04:56.013Z,104007.38
2023-02-07T09:07:23.183Z,104010.16
2023-02-07T09:09:50.189Z,104011.03
2023-02-07T09:12:17.048Z,104013.69
2023-02-07T09:14:44.889Z,104016.59
2023-02-07T09:17:11.781Z,104024.69
2023-02-07T09:19:38.615Z,104031.81
2023-02-07T09:22:08.051Z,104033.75
2023-02-07T09:24:35.385Z,104032.22
2023-02-07T09:27:02.499Z,104036.97
2023-02-07T09:29:29.318Z,104046.69
2023-02-07T09:31:56.236Z,104043.91
2023-02-07T09:34:23.109Z,104037.53
2023-02-07T09:36:52.878Z,104030.00
2023-02-07T09:39:19.889Z,104029.00
2023-02-07T09:41:49.950Z,104025.81
2023-02-07T09:44:21.131Z,104023.56
2023-02-07T09:46:58.312Z,104024.69
2023-02-07T09:49:34.372Z,104024.84
2023-02-07T09:52:01.932Z,104023.00
2023-02-07T09:54:30.433Z,104028.16
2023-02-07T09:56:59.269Z,104030.66
2023-02-07T09:59:44.800Z,104039.75
2023-02-07T10:02:31.996Z,104046.75
2023-02-07T10:05:02.913Z,104035.69
2023-02-07T10:07:30.818Z,104040.56
2023-02-07T10:09:57.801Z,104034.56
2023-02-07T10:12:25.292Z,104042.50
2023-02-07T10:15:17.369Z,104034.88
2023-02-07T10:18:09.118Z,104032.91
2023-02-07T10:20:42.228Z,104030.47
2023-02-07T10:23:15.213Z,104040.72
2023-02-07T10:25:43.117Z,104044.19
2023-02-07T10:28:16.133Z,104038.75
2023-02-07T10:30:49.660Z,104044.78
2023-02-07T10:33:18.770Z,104052.72
2023-02-07T10:35:46.368Z,104053.56
2023-02-07T10:38:31.044Z,104059.41
2023-02-07T10:41:01.630Z,104057.03
2023-02-07T10:43:32.811Z,104062.25
2023-02-07T10:46:06.309Z,104063.31
2023-02-07T10:48:34.186Z,104061.00
2023-02-07T10:51:02.705Z,104067.38
2023-02-07T10:53:55.381Z,104059.22
2023-02-07T10:56:29.323Z,104064.19
2023-02-07T10:58:57.306Z,104065.03
2023-02-07T11:01:26.019Z,104064.72
2023-02-07T11:03:53.158Z,104059.63
2023-02-07T11:06:27.846Z,104065.59
2023-02-07T11:09:18.071Z,104074.75
2023-02-07T11:11:47.755Z,104068.91
2023-02-07T11:14:17.746Z,104060.78
2023-02-07T11:16:45.205Z,104064.59
2023-02-07T11:19:17.266Z,104060.38
2023-02-07T11:21:45.009Z,104061.41
2023-02-07T11:24:21.387Z,104061.69
2023-02-07T11:27:02.203Z,104050.56
2023-02-07T11:29:30.194Z,104048.41
2023-02-07T11:31:59.789Z,104042.97
2023-02-07T11:34:35.946Z,104041.16
2023-02-07T11:37:21.606Z,104041.41
2023-02-07T11:39:51.276Z,104029.66
2023-02-07T11:42:22.712Z,104031.50
2023-02-07T11:44:50.271Z,104023.03
2023-02-07T11:47:25.696Z,104024.28
2023-02-07T11:49:55.914Z,104032.41
2023-02-07T11:52:24.345Z,104029.69
2023-02-07T11:54:53.308Z,104024.81
2023-02-07T11:57:21.356Z,104027.69
2023-02-07T11:59:59.404Z,104031.16
2023-02-07T12:02:28.550Z,104021.97
2023-02-07T12:04:56.689Z,104034.16
2023-02-07T12:07:26.783Z,104033.94
2023-02-07T12:09:55.940Z,104025.28
2023-02-07T12:12:42.054Z,104026.25
2023-02-07T12:15:17.797Z,104024.28
2023-02-07T12:18:01.461Z,104022.34
2023-02-07T12:20:51.502Z,104025.13
2023-02-07T12:23:44.427Z,104012.53
2023-02-07T12:26:14.346Z,104013.22
2023-02-07T12:28:47.547Z,104008.34
2023-02-07T12:31:42.394Z,104012.38
2023-02-07T12:34:11.917Z,104007.00
2023-02-07T12:36:42.261Z,104015.56
2023-02-07T12:39:20.380Z,104010.78
2023-02-07T12:42:12.037Z,104008.25
2023-02-07T12:44:41.134Z,104000.97
2023-02-07T12:47:14.093Z,104012.75
2023-02-07T12:49:44.538Z,104006.13
2023-02-07T12:52:46.941Z,73387.22
2023-02-07T12:55:13.755Z,73387.22
2023-02-07T12:57:43.330Z,73387.22
2023-02-07T13:00:20.583Z,73387.22
2023-02-07T13:03:06.346Z,73387.22
2023-02-07T13:05:51.422Z,103916.31
2023-02-07T13:08:18.355Z,103923.28
2023-02-07T13:10:48.237Z,103903.81
2023-02-07T13:13:21.070Z,103909.97
2023-02-07T13:15:53.212Z,103893.88
2023-02-07T13:18:30.343Z,103880.16
2023-02-07T13:21:16.572Z,103878.59
2023-02-07T13:23:47.482Z,103872.78
2023-02-07T13:26:17.470Z,103878.56
2023-02-07T13:28:46.189Z,103866.53
2023-02-07T13:31:18.436Z,103885.81
2023-02-07T13:33:47.511Z,103858.75
2023-02-07T13:36:17.303Z,103836.88
2023-02-07T13:38:54.767Z,103855.03
2023-02-07T13:41:40.745Z,103854.63
2023-02-07T13:44:16.111Z,103844.44
2023-02-07T13:46:56.104Z,103850.06
2023-02-07T13:49:28.964Z,103832.09
2023-02-07T13:51:57.810Z,103802.44
2023-02-07T13:54:28.549Z,103834.22
2023-02-07T13:57:15.432Z,103797.28
2023-02-07T13:59:42.813Z,103825.09
2023-02-07T14:02:15.820Z,103828.72
2023-02-07T14:05:06.475Z,103812.03
2023-02-07T14:07:36.042Z,103809.41
2023-02-07T14:10:03.955Z,103826.72
2023-02-07T14:12:41.833Z,103815.25
2023-02-07T14:15:36.437Z,103808.38
2023-02-07T14:18:04.754Z,103779.78
2023-02-07T14:20:34.617Z,103800.53
2023-02-07T14:23:01.387Z,103797.22
2023-02-07T14:25:39.049Z,103796.97
2023-02-07T14:28:08.932Z,103798.28
2023-02-07T14:30:37.271Z,103777.66
2023-02-07T14:33:12.517Z,103786.03
2023-02-07T14:35:45.764Z,103790.56
2023-02-07T14:38:33.487Z,103812.56
2023-02-07T14:41:11.102Z,103813.25
2023-02-07T14:43:41.372Z,103810.53
2023-02-07T14:46:10.767Z,103813.16
2023-02-07T14:48:43.479Z,103801.72
2023-02-07T14:51:15.978Z,103811.81
2023-02-07T14:53:45.430Z,103835.13
2023-02-07T14:56:42.001Z,103857.66
2023-02-07T14:59:10.811Z,103813.38
2023-02-07T15:01:37.833Z,103836.22
2023-02-07T15:04:06.484Z,103849.69
2023-02-07T15:06:41.051Z,103844.06
2023-02-07T15:09:19.557Z,103837.34
2023-02-07T15:11:51.463Z,103841.28
2023-02-07T15:14:27.369Z,103846.47
2023-02-07T15:16:54.647Z,103822.09
2023-02-07T15:19:40.217Z,103831.44
2023-02-07T15:22:20.458Z,103817.59
2023-02-07T15:24:52.400Z,103830.81
2023-02-07T15:27:21.745Z,103820.34
2023-02-07T15:29:57.942Z,103815.13
2023-02-07T15:32:33.934Z,103805.28
2023-02-07T15:35:12.733Z,103825.88
2023-02-07T15:37:39.908Z,103835.81
2023-02-07T15:40:07.459Z,103836.09
2023-02-07T15:42:34.386Z,103837.63
2023-02-07T15:45:01.306Z,103845.69
2023-02-07T15:47:29.269Z,103856.94
2023-02-07T15:50:19.829Z,103875.13
2023-02-07T15:52:50.182Z,103885.25
2023-02-07T15:55:29.770Z,103894.44
2023-02-07T15:57:56.741Z,103902.00
2023-02-07T16:00:26.458Z,103926.22
2023-02-07T16:03:00.852Z,103939.28
2023-02-07T16:05:37.952Z,103946.66
2023-02-07T16:08:06.777Z,103951.03
2023-02-07T16:10:38.353Z,103948.81
2023-02-07T16:13:22.326Z,103951.91
2023-02-07T16:16:12.356Z,103952.47
2023-02-07T16:18:45.819Z,103959.38
2023-02-07T16:21:14.728Z,103965.03
2023-02-07T16:23:42.347Z,103961.03
2023-02-07T16:26:09.655Z,103963.31
2023-02-07T16:28:36.861Z,103956.84
2023-02-07T16:31:04.403Z,103964.28
2023-02-07T16:33:31.686Z,103961.28
2023-02-07T16:35:58.485Z,103966.91
2023-02-07T16:38:25.513Z,103965.41
2023-02-07T16:40:52.714Z,103964.19
2023-02-07T16:43:40.143Z,103960.84
2023-02-07T16:46:07.964Z,103965.63
2023-02-07T16:48:35.143Z,103964.47
2023-02-07T16:51:01.993Z,103967.34
2023-02-07T16:53:28.992Z,103973.31
2023-02-07T16:55:56.684Z,103967.72
2023-02-07T16:58:28.462Z,103969.34
2023-02-07T17:00:55.470Z,103965.19
2023-02-07T17:03:22.762Z,103963.66
2023-02-07T17:05:50.062Z,103962.47
2023-02-07T17:08:23.185Z,103957.41
2023-02-07T17:10:52.324Z,103963.72
2023-02-07T17:13:20.031Z,103958.88
2023-02-07T17:15:48.003Z,103968.97
2023-02-07T17:18:15.879Z,103962.22
2023-02-07T17:20:43.041Z,103960.78
2023-02-07T17:23:09.912Z,103962.44
2023-02-07T17:25:36.731Z,103956.16
2023-02-07T17:28:03.860Z,103952.13
2023-02-07T17:30:34.980Z,103943.25
2023-02-07T17:33:03.230Z,103947.31
2023-02-07T17:35:30.181Z,103943.69
2023-02-07T17:37:57.055Z,103939.13
2023-02-07T17:40:28.954Z,103948.38
2023-02-07T17:42:56.210Z,103937.50
2023-02-07T17:45:23.966Z,103938.19
2023-02-07T17:47:51.118Z,103934.72
2023-02-07T17:50:23.046Z,103948.81
2023-02-07T17:52:50.362Z,103948.75
2023-02-07T17:55:17.615Z,103953.38
2023-02-07T17:57:44.575Z,103951.84
2023-02-07T18:00:16.588Z,103944.34
2023-02-07T18:02:45.235Z,103941.00
2023-02-07T18:05:13.017Z,103942.31
2023-02-07T18:07:40.067Z,103938.25
2023-02-07T18:10:09.677Z,103944.41
2023-02-07T18:12:39.521Z,103948.22
2023-02-07T18:15:09.025Z,103949.19
2023-02-07T18:17:37.214Z,103944.38
2023-02-07T18:20:06.196Z,103944.38
2023-02-07T18:22:33.262Z,103946.91
2023-02-07T18:25:00.455Z,103944.63
2023-02-07T18:27:27.417Z,103946.97
2023-02-07T18:29:54.551Z,103951.72
2023-02-07T18:32:22.652Z,103941.91
2023-02-07T18:34:49.682Z,103945.25
2023-02-07T18:37:17.974Z,103952.94
2023-02-07T18:39:46.390Z,103957.22
2023-02-07T18:42:17.535Z,103956.41
2023-02-07T18:44:45.054Z,103950.09
2023-02-07T18:47:12.031Z,103952.94
2023-02-07T18:49:38.873Z,103956.34
2023-02-07T18:52:05.768Z,103958.00
2023-02-07T18:54:32.611Z,103950.56
2023-02-07T18:56:59.492Z,103952.16
2023-02-07T18:59:28.477Z,103957.19
2023-02-07T19:01:55.319Z,103956.97
2023-02-07T19:04:22.700Z,103959.22
2023-02-07T19:06:51.649Z,103959.22
2023-02-07T19:09:20.380Z,103963.72
2023-02-07T19:11:50.975Z,103962.88
2023-02-07T19:14:21.801Z,103964.16
2023-02-07T19:16:52.752Z,103965.44
2023-02-07T19:19:20.564Z,103973.03
2023-02-07T19:21:47.464Z,103971.88
2023-02-07T19:24:15.866Z,103977.50
2023-02-07T19:26:43.693Z,103962.13
2023-02-07T19:29:13.963Z,103961.28
2023-02-07T19:31:44.388Z,103959.03
2023-02-07T19:34:15.528Z,103956.38
2023-02-07T19:36:42.657Z,103960.44
2023-02-07T19:39:10.200Z,103952.34
2023-02-07T19:41:37.258Z,103960.00
2023-02-07T19:44:04.291Z,103949.84
2023-02-07T19:46:31.442Z,103951.81
2023-02-07T19:48:58.644Z,103956.81
2023-02-07T19:51:29.336Z,103961.28
2023-02-07T19:53:56.926Z,103955.53
2023-02-07T19:56:26.118Z,103962.56
2023-02-07T19:58:54.017Z,103959.03
2023-02-07T20:01:21.597Z,103952.94
2023-02-07T20:03:52.182Z,103963.06
2023-02-07T20:06:20.496Z,103958.94
2023-02-07T20:08:47.691Z,103964.22
2023-02-07T20:11:15.681Z,103961.84
2023-02-07T20:13:44.550Z,103959.06
2023-02-07T20:16:19.929Z,103956.84
2023-02-07T20:18:47.029Z,103963.53
2023-02-07T20:21:15.728Z,103953.63
2023-02-07T20:23:47.020Z,103966.56
2023-02-07T20:26:15.310Z,103958.22
2023-02-07T20:28:42.975Z,103953.75
2023-02-07T20:31:11.760Z,103945.94
2023-02-07T20:33:41.937Z,103942.03
2023-02-07T20:36:09.888Z,103939.38
2023-02-07T20:38:37.193Z,103947.94
2023-02-07T20:41:08.174Z,103947.09
2023-02-07T20:43:36.088Z,103947.78
2023-02-07T20:46:08.469Z,103943.94
2023-02-07T20:48:35.412Z,103946.84
2023-02-07T20:51:09.803Z,103950.63
2023-02-07T20:53:37.936Z,103949.66
2023-02-07T20:56:06.098Z,103944.88
2023-02-07T20:58:35.494Z,103947.84
2023-02-07T21:01:08.468Z,103951.03
2023-02-07T21:03:35.699Z,103941.28
2023-02-07T21:06:02.661Z,103942.13
2023-02-07T21:08:30.629Z,103940.16
2023-02-07T21:10:58.096Z,103937.38
2023-02-07T21:13:25.044Z,103938.34
2023-02-07T21:16:02.577Z,103939.59
2023-02-07T21:18:30.443Z,103930.66
2023-02-07T21:20:57.423Z,103931.13
2023-02-07T21:23:24.609Z,103930.06
2023-02-07T21:25:54.627Z,103932.59
2023-02-07T21:28:21.498Z,103928.38
2023-02-07T21:30:48.437Z,103927.53
2023-02-07T21:33:15.477Z,103924.50
2023-02-07T21:35:42.389Z,103920.56
2023-02-07T21:38:10.458Z,103921.28
2023-02-07T21:40:37.385Z,103919.59
2023-02-07T21:43:05.057Z,103916.38
2023-02-07T21:45:31.940Z,103921.22
2023-02-07T21:47:58.976Z,103928.91
2023-02-07T21:50:26.142Z,103922.06
2023-02-07T21:52:53.004Z,103926.34
2023-02-07T21:55:21.213Z,103921.66
2023-02-07T21:57:48.106Z,103926.94
2023-02-07T22:00:15.412Z,103936.13
2023-02-07T22:02:42.633Z,103934.19
2023-02-07T22:05:09.611Z,103938.38
2023-02-07T22:07:36.506Z,103949.81
2023-02-07T22:10:03.752Z,103948.84
2023-02-07T22:12:30.721Z,103952.03
2023-02-07T22:14:57.570Z,103955.69
2023-02-07T22:17:24.580Z,103948.84
2023-02-07T22:19:51.789Z,103951.34
2023-02-07T22:22:19.016Z,103953.03
2023-02-07T22:24:45.948Z,103946.31
2023-02-07T22:27:13.902Z,103950.06
2023-02-07T22:29:40.839Z,103941.56
2023-02-07T22:32:07.829Z,103951.03
2023-02-07T22:34:34.657Z,103952.44
2023-02-07T22:37:01.868Z,103955.94
2023-02-07T22:42:10.208Z,103976.13
2023-02-07T22:44:37.162Z,103971.81
2023-02-07T22:47:04.442Z,103975.69
2023-02-07T22:49:31.726Z,103970.41
2023-02-07T22:51:59.878Z,103974.00
2023-02-07T22:54:26.783Z,103982.22
2023-02-07T22:56:53.886Z,103973.38
2023-02-07T22:59:20.698Z,103972.16
2023-02-07T23:01:47.818Z,103966.16
2023-02-07T23:04:17.469Z,103960.00
2023-02-07T23:06:45.237Z,103964.44
2023-02-07T23:09:12.262Z,103959.16
2023-02-07T23:11:39.224Z,103962.75
2023-02-07T23:14:06.595Z,103953.28
2023-02-07T23:16:34.238Z,103953.16
2023-02-07T23:19:08.707Z,103951.72
2023-02-07T23:21:35.594Z,103955.34
2023-02-07T23:24:04.590Z,103954.09
2023-02-07T23:26:31.747Z,103953.13
2023-02-07T23:28:58.750Z,103957.56
2023-02-07T23:31:26.173Z,103955.84
2023-02-07T23:33:53.613Z,103953.63
2023-02-07T23:36:21.243Z,103954.88
2023-02-07T23:38:49.006Z,103953.72
2023-02-07T23:41:16.680Z,103955.97
2023-02-07T23:43:43.728Z,103958.75
2023-02-07T23:46:17.341Z,103958.03
2023-02-07T23:48:44.594Z,103958.16
2023-02-07T23:51:12.285Z,103952.81
2023-02-07T23:53:39.269Z,103956.66
2023-02-07T23:56:07.651Z,103959.78
2023-02-07T23:58:34.564Z,103957.63
